sensor_id;sensor_type;location;lat;lon;timestamp;temperature;humidity
43808;DHT22;29438;50.664;10.098;2023-07-13T00:01:28;15.40;68.40
43808;DHT22;29438;50.664;10.098;2023-07-13T00:03:55;15.30;68.80
43808;DHT22;29438;50.664;10.098;2023-07-13T00:06:21;15.20;69.50
43808;DHT22;29438;50.664;10.098;2023-07-13T00:08:47;15.10;69.90
43808;DHT22;29438;50.664;10.098;2023-07-13T00:11:15;15.00;70.20
43808;DHT22;29438;50.664;10.098;2023-07-13T00:13:41;14.90;70.50
43808;DHT22;29438;50.664;10.098;2023-07-13T00:16:08;14.80;70.60
43808;DHT22;29438;50.664;10.098;2023-07-13T00:18:34;14.70;71.10
43808;DHT22;29438;50.664;10.098;2023-07-13T00:21:00;14.70;71.50
43808;DHT22;29438;50.664;10.098;2023-07-13T00:23:34;14.60;71.30
43808;DHT22;29438;50.664;10.098;2023-07-13T00:26:00;14.50;71.90
43808;DHT22;29438;50.664;10.098;2023-07-13T00:28:27;14.40;72.10
43808;DHT22;29438;50.664;10.098;2023-07-13T00:30:52;14.40;72.30
43808;DHT22;29438;50.664;10.098;2023-07-13T00:33:18;14.20;72.80
43808;DHT22;29438;50.664;10.098;2023-07-13T00:35:43;14.20;72.90
43808;DHT22;29438;50.664;10.098;2023-07-13T00:38:09;14.10;73.80
43808;DHT22;29438;50.664;10.098;2023-07-13T00:40:35;14.00;74.40
43808;DHT22;29438;50.664;10.098;2023-07-13T00:43:01;14.10;74.30
43808;DHT22;29438;50.664;10.098;2023-07-13T00:47:52;14.10;74.90
43808;DHT22;29438;50.664;10.098;2023-07-13T00:50:18;14.10;74.50
43808;DHT22;29438;50.664;10.098;2023-07-13T00:52:47;14.20;74.10
43808;DHT22;29438;50.664;10.098;2023-07-13T00:55:14;14.20;73.80
43808;DHT22;29438;50.664;10.098;2023-07-13T00:57:40;14.20;73.50
43808;DHT22;29438;50.664;10.098;2023-07-13T01:00:08;14.10;73.30
43808;DHT22;29438;50.664;10.098;2023-07-13T01:02:38;14.00;73.70
43808;DHT22;29438;50.664;10.098;2023-07-13T01:05:13;14.00;73.80
43808;DHT22;29438;50.664;10.098;2023-07-13T01:07:40;13.80;73.90
43808;DHT22;29438;50.664;10.098;2023-07-13T01:10:07;13.80;74.30
43808;DHT22;29438;50.664;10.098;2023-07-13T01:12:33;13.70;74.10
43808;DHT22;29438;50.664;10.098;2023-07-13T01:15:00;13.70;74.20
43808;DHT22;29438;50.664;10.098;2023-07-13T01:17:27;13.60;74.40
43808;DHT22;29438;50.664;10.098;2023-07-13T01:19:54;13.50;74.70
43808;DHT22;29438;50.664;10.098;2023-07-13T01:22:20;13.40;75.10
43808;DHT22;29438;50.664;10.098;2023-07-13T01:24:53;13.50;74.80
43808;DHT22;29438;50.664;10.098;2023-07-13T01:27:24;13.50;74.70
43808;DHT22;29438;50.664;10.098;2023-07-13T01:29:51;13.60;74.80
43808;DHT22;29438;50.664;10.098;2023-07-13T01:32:20;13.60;74.70
43808;DHT22;29438;50.664;10.098;2023-07-13T01:34:49;13.50;74.60
43808;DHT22;29438;50.664;10.098;2023-07-13T01:37:15;13.60;75.00
43808;DHT22;29438;50.664;10.098;2023-07-13T01:39:40;13.60;75.00
43808;DHT22;29438;50.664;10.098;2023-07-13T01:42:06;13.60;74.60
43808;DHT22;29438;50.664;10.098;2023-07-13T01:44:32;13.50;74.50
43808;DHT22;29438;50.664;10.098;2023-07-13T01:46:57;13.50;74.60
43808;DHT22;29438;50.664;10.098;2023-07-13T01:49:23;13.50;74.70
43808;DHT22;29438;50.664;10.098;2023-07-13T01:51:48;13.40;74.70
43808;DHT22;29438;50.664;10.098;2023-07-13T01:54:14;13.30;74.70
43808;DHT22;29438;50.664;10.098;2023-07-13T01:56:39;13.20;74.80
43808;DHT22;29438;50.664;10.098;2023-07-13T01:59:07;13.10;75.00
43808;DHT22;29438;50.664;10.098;2023-07-13T02:01:33;13.00;75.20
43808;DHT22;29438;50.664;10.098;2023-07-13T02:03:58;12.90;75.60
43808;DHT22;29438;50.664;10.098;2023-07-13T02:06:24;12.90;75.90
43808;DHT22;29438;50.664;10.098;2023-07-13T02:08:49;12.90;76.20
43808;DHT22;29438;50.664;10.098;2023-07-13T02:11:15;12.80;76.30
43808;DHT22;29438;50.664;10.098;2023-07-13T02:13:40;12.80;76.40
43808;DHT22;29438;50.664;10.098;2023-07-13T02:16:06;12.70;76.20
43808;DHT22;29438;50.664;10.098;2023-07-13T02:18:32;12.70;76.70
43808;DHT22;29438;50.664;10.098;2023-07-13T02:20:58;12.70;77.00
43808;DHT22;29438;50.664;10.098;2023-07-13T02:23:23;12.60;77.40
43808;DHT22;29438;50.664;10.098;2023-07-13T02:25:49;12.60;77.50
43808;DHT22;29438;50.664;10.098;2023-07-13T02:28:14;12.60;77.40
43808;DHT22;29438;50.664;10.098;2023-07-13T02:30:40;12.70;77.20
43808;DHT22;29438;50.664;10.098;2023-07-13T02:33:05;12.70;77.10
43808;DHT22;29438;50.664;10.098;2023-07-13T02:35:31;12.70;77.30
43808;DHT22;29438;50.664;10.098;2023-07-13T02:37:57;12.70;77.10
43808;DHT22;29438;50.664;10.098;2023-07-13T02:40:22;12.50;77.30
43808;DHT22;29438;50.664;10.098;2023-07-13T02:42:48;12.40;77.70
43808;DHT22;29438;50.664;10.098;2023-07-13T02:45:13;12.40;78.00
43808;DHT22;29438;50.664;10.098;2023-07-13T02:47:41;12.10;78.20
43808;DHT22;29438;50.664;10.098;2023-07-13T02:50:07;12.20;78.70
43808;DHT22;29438;50.664;10.098;2023-07-13T02:52:33;12.30;79.00
43808;DHT22;29438;50.664;10.098;2023-07-13T02:54:59;12.20;79.00
43808;DHT22;29438;50.664;10.098;2023-07-13T02:57:24;12.20;78.90
43808;DHT22;29438;50.664;10.098;2023-07-13T02:59:50;12.20;78.80
43808;DHT22;29438;50.664;10.098;2023-07-13T03:02:16;12.20;78.80
43808;DHT22;29438;50.664;10.098;2023-07-13T03:04:41;12.20;79.20
43808;DHT22;29438;50.664;10.098;2023-07-13T03:07:07;12.30;78.90
43808;DHT22;29438;50.664;10.098;2023-07-13T03:09:34;12.40;79.00
43808;DHT22;29438;50.664;10.098;2023-07-13T03:12:00;12.40;79.10
43808;DHT22;29438;50.664;10.098;2023-07-13T03:14:26;12.50;79.20
43808;DHT22;29438;50.664;10.098;2023-07-13T03:16:52;12.50;78.70
43808;DHT22;29438;50.664;10.098;2023-07-13T03:19:18;12.30;78.60
43808;DHT22;29438;50.664;10.098;2023-07-13T03:21:43;12.20;78.90
43808;DHT22;29438;50.664;10.098;2023-07-13T03:24:09;12.20;79.20
43808;DHT22;29438;50.664;10.098;2023-07-13T03:26:34;12.30;79.60
43808;DHT22;29438;50.664;10.098;2023-07-13T03:29:00;12.30;80.00
43808;DHT22;29438;50.664;10.098;2023-07-13T03:31:30;12.50;80.00
43808;DHT22;29438;50.664;10.098;2023-07-13T03:33:56;12.70;79.90
43808;DHT22;29438;50.664;10.098;2023-07-13T03:36:25;12.70;79.50
43808;DHT22;29438;50.664;10.098;2023-07-13T03:38:54;12.80;79.10
43808;DHT22;29438;50.664;10.098;2023-07-13T03:41:21;12.90;78.70
43808;DHT22;29438;50.664;10.098;2023-07-13T03:43:47;12.90;78.20
43808;DHT22;29438;50.664;10.098;2023-07-13T03:46:14;13.00;78.00
43808;DHT22;29438;50.664;10.098;2023-07-13T03:48:41;13.10;78.00
43808;DHT22;29438;50.664;10.098;2023-07-13T03:51:08;13.20;78.00
43808;DHT22;29438;50.664;10.098;2023-07-13T03:53:38;13.40;77.80
43808;DHT22;29438;50.664;10.098;2023-07-13T03:56:04;13.70;77.20
43808;DHT22;29438;50.664;10.098;2023-07-13T03:58:35;13.80;76.60
43808;DHT22;29438;50.664;10.098;2023-07-13T04:01:03;13.90;75.80
43808;DHT22;29438;50.664;10.098;2023-07-13T04:03:29;14.20;75.20
43808;DHT22;29438;50.664;10.098;2023-07-13T04:05:58;14.50;74.40
43808;DHT22;29438;50.664;10.098;2023-07-13T04:08:26;14.90;73.50
43808;DHT22;29438;50.664;10.098;2023-07-13T04:10:52;15.20;72.60
43808;DHT22;29438;50.664;10.098;2023-07-13T04:13:17;15.50;71.40
43808;DHT22;29438;50.664;10.098;2023-07-13T04:15:43;15.70;70.10
43808;DHT22;29438;50.664;10.098;2023-07-13T04:18:08;15.80;69.90
43808;DHT22;29438;50.664;10.098;2023-07-13T04:20:34;15.80;70.10
43808;DHT22;29438;50.664;10.098;2023-07-13T04:23:00;16.10;69.10
43808;DHT22;29438;50.664;10.098;2023-07-13T04:25:25;16.50;67.40
43808;DHT22;29438;50.664;10.098;2023-07-13T04:27:52;16.90;66.20
43808;DHT22;29438;50.664;10.098;2023-07-13T04:30:17;17.30;65.20
43808;DHT22;29438;50.664;10.098;2023-07-13T04:32:43;18.20;62.70
43808;DHT22;29438;50.664;10.098;2023-07-13T04:35:09;18.70;60.40
43808;DHT22;29438;50.664;10.098;2023-07-13T04:37:34;20.30;57.50
43808;DHT22;29438;50.664;10.098;2023-07-13T04:40:01;23.20;48.80
43808;DHT22;29438;50.664;10.098;2023-07-13T04:42:26;24.60;44.80
43808;DHT22;29438;50.664;10.098;2023-07-13T04:44:52;26.40;40.60
43808;DHT22;29438;50.664;10.098;2023-07-13T04:47:18;26.80;39.60
43808;DHT22;29438;50.664;10.098;2023-07-13T04:49:45;26.20;40.80
43808;DHT22;29438;50.664;10.098;2023-07-13T04:52:10;26.90;39.20
43808;DHT22;29438;50.664;10.098;2023-07-13T04:54:37;28.20;36.90
43808;DHT22;29438;50.664;10.098;2023-07-13T04:57:03;28.10;37.40
43808;DHT22;29438;50.664;10.098;2023-07-13T04:59:32;27.80;37.70
43808;DHT22;29438;50.664;10.098;2023-07-13T05:01:57;27.70;37.80
43808;DHT22;29438;50.664;10.098;2023-07-13T05:04:23;28.20;36.70
43808;DHT22;29438;50.664;10.098;2023-07-13T05:06:48;28.50;36.40
43808;DHT22;29438;50.664;10.098;2023-07-13T05:09:14;29.00;35.30
43808;DHT22;29438;50.664;10.098;2023-07-13T05:11:39;29.20;34.90
43808;DHT22;29438;50.664;10.098;2023-07-13T05:14:05;28.40;35.40
43808;DHT22;29438;50.664;10.098;2023-07-13T05:16:30;25.60;40.00
43808;DHT22;29438;50.664;10.098;2023-07-13T05:18:57;23.90;44.20
43808;DHT22;29438;50.664;10.098;2023-07-13T05:21:23;25.50;41.40
43808;DHT22;29438;50.664;10.098;2023-07-13T05:23:50;27.60;38.30
43808;DHT22;29438;50.664;10.098;2023-07-13T05:26:15;29.50;35.20
43808;DHT22;29438;50.664;10.098;2023-07-13T05:28:41;31.10;32.90
43808;DHT22;29438;50.664;10.098;2023-07-13T05:31:09;30.80;32.30
43808;DHT22;29438;50.664;10.098;2023-07-13T05:33:35;30.60;32.60
43808;DHT22;29438;50.664;10.098;2023-07-13T05:36:00;27.10;37.70
43808;DHT22;29438;50.664;10.098;2023-07-13T05:38:26;27.60;37.70
43808;DHT22;29438;50.664;10.098;2023-07-13T05:40:54;29.70;34.90
43808;DHT22;29438;50.664;10.098;2023-07-13T05:43:19;30.90;32.20
43808;DHT22;29438;50.664;10.098;2023-07-13T05:45:45;30.50;32.60
43808;DHT22;29438;50.664;10.098;2023-07-13T05:48:10;30.40;32.40
43808;DHT22;29438;50.664;10.098;2023-07-13T05:50:36;30.20;33.00
43808;DHT22;29438;50.664;10.098;2023-07-13T05:53:01;30.00;32.80
43808;DHT22;29438;50.664;10.098;2023-07-13T05:55:27;30.60;32.50
43808;DHT22;29438;50.664;10.098;2023-07-13T05:57:53;32.40;30.50
43808;DHT22;29438;50.664;10.098;2023-07-13T06:00:20;32.60;29.40
43808;DHT22;29438;50.664;10.098;2023-07-13T06:02:45;31.80;29.80
43808;DHT22;29438;50.664;10.098;2023-07-13T06:05:11;32.50;28.80
43808;DHT22;29438;50.664;10.098;2023-07-13T06:07:37;32.80;28.60
43808;DHT22;29438;50.664;10.098;2023-07-13T06:10:03;32.70;28.80
43808;DHT22;29438;50.664;10.098;2023-07-13T06:12:28;33.50;27.70
43808;DHT22;29438;50.664;10.098;2023-07-13T06:14:54;33.90;27.20
43808;DHT22;29438;50.664;10.098;2023-07-13T06:17:19;33.60;27.20
43808;DHT22;29438;50.664;10.098;2023-07-13T06:19:45;34.10;27.20
43808;DHT22;29438;50.664;10.098;2023-07-13T06:22:10;34.20;27.10
43808;DHT22;29438;50.664;10.098;2023-07-13T06:24:36;33.80;26.70
43808;DHT22;29438;50.664;10.098;2023-07-13T06:27:02;33.30;27.50
43808;DHT22;29438;50.664;10.098;2023-07-13T06:29:27;34.00;26.80
43808;DHT22;29438;50.664;10.098;2023-07-13T06:31:53;34.70;26.00
43808;DHT22;29438;50.664;10.098;2023-07-13T06:34:18;34.20;26.30
43808;DHT22;29438;50.664;10.098;2023-07-13T06:36:44;33.40;27.90
43808;DHT22;29438;50.664;10.098;2023-07-13T06:39:10;33.20;27.40
43808;DHT22;29438;50.664;10.098;2023-07-13T06:41:35;33.10;27.50
43808;DHT22;29438;50.664;10.098;2023-07-13T06:44:01;32.60;27.80
43808;DHT22;29438;50.664;10.098;2023-07-13T06:46:28;32.30;27.90
43808;DHT22;29438;50.664;10.098;2023-07-13T06:48:55;33.50;27.20
43808;DHT22;29438;50.664;10.098;2023-07-13T06:51:21;32.70;27.60
43808;DHT22;29438;50.664;10.098;2023-07-13T06:53:46;32.30;27.60
43808;DHT22;29438;50.664;10.098;2023-07-13T06:56:12;33.20;27.20
43808;DHT22;29438;50.664;10.098;2023-07-13T06:58:38;32.60;27.50
43808;DHT22;29438;50.664;10.098;2023-07-13T07:01:04;33.20;27.60
43808;DHT22;29438;50.664;10.098;2023-07-13T07:03:30;33.90;26.20
43808;DHT22;29438;50.664;10.098;2023-07-13T07:06:12;34.30;25.50
43808;DHT22;29438;50.664;10.098;2023-07-13T07:08:37;34.20;25.50
43808;DHT22;29438;50.664;10.098;2023-07-13T07:11:03;34.90;25.80
43808;DHT22;29438;50.664;10.098;2023-07-13T07:13:28;34.40;25.10
43808;DHT22;29438;50.664;10.098;2023-07-13T07:15:55;33.20;27.00
43808;DHT22;29438;50.664;10.098;2023-07-13T07:18:20;33.30;26.50
43808;DHT22;29438;50.664;10.098;2023-07-13T07:20:46;32.70;27.20
43808;DHT22;29438;50.664;10.098;2023-07-13T07:23:11;32.00;27.50
43808;DHT22;29438;50.664;10.098;2023-07-13T07:25:37;33.00;27.40
43808;DHT22;29438;50.664;10.098;2023-07-13T07:28:07;32.90;27.30
43808;DHT22;29438;50.664;10.098;2023-07-13T07:30:33;31.40;29.10
43808;DHT22;29438;50.664;10.098;2023-07-13T07:32:58;31.90;28.70
43808;DHT22;29438;50.664;10.098;2023-07-13T07:35:24;32.60;27.70
43808;DHT22;29438;50.664;10.098;2023-07-13T07:37:50;32.20;28.30
43808;DHT22;29438;50.664;10.098;2023-07-13T07:40:15;31.80;28.70
43808;DHT22;29438;50.664;10.098;2023-07-13T07:42:41;31.40;28.60
43808;DHT22;29438;50.664;10.098;2023-07-13T07:45:07;32.10;28.70
43808;DHT22;29438;50.664;10.098;2023-07-13T07:47:42;32.30;28.20
43808;DHT22;29438;50.664;10.098;2023-07-13T07:50:08;31.60;28.50
43808;DHT22;29438;50.664;10.098;2023-07-13T07:52:34;31.60;28.40
43808;DHT22;29438;50.664;10.098;2023-07-13T07:55:00;32.50;27.40
43808;DHT22;29438;50.664;10.098;2023-07-13T07:57:25;33.10;27.00
43808;DHT22;29438;50.664;10.098;2023-07-13T07:59:51;32.00;27.90
43808;DHT22;29438;50.664;10.098;2023-07-13T08:02:16;32.60;27.40
43808;DHT22;29438;50.664;10.098;2023-07-13T08:04:42;32.60;27.00
43808;DHT22;29438;50.664;10.098;2023-07-13T08:07:09;32.20;27.60
43808;DHT22;29438;50.664;10.098;2023-07-13T08:09:34;32.10;27.60
43808;DHT22;29438;50.664;10.098;2023-07-13T08:12:00;32.70;27.40
43808;DHT22;29438;50.664;10.098;2023-07-13T08:14:25;32.30;27.90
43808;DHT22;29438;50.664;10.098;2023-07-13T08:16:51;33.00;27.20
43808;DHT22;29438;50.664;10.098;2023-07-13T08:19:16;33.10;26.80
43808;DHT22;29438;50.664;10.098;2023-07-13T08:21:42;31.90;27.80
43808;DHT22;29438;50.664;10.098;2023-07-13T08:24:09;31.60;27.90
43808;DHT22;29438;50.664;10.098;2023-07-13T08:26:34;31.90;27.70
43808;DHT22;29438;50.664;10.098;2023-07-13T08:29:00;31.40;29.10
43808;DHT22;29438;50.664;10.098;2023-07-13T08:31:26;31.60;28.00
43808;DHT22;29438;50.664;10.098;2023-07-13T08:33:51;31.60;28.30
43808;DHT22;29438;50.664;10.098;2023-07-13T08:36:17;31.70;28.60
43808;DHT22;29438;50.664;10.098;2023-07-13T08:38:42;31.40;29.00
43808;DHT22;29438;50.664;10.098;2023-07-13T08:41:14;31.40;29.00
43808;DHT22;29438;50.664;10.098;2023-07-13T08:43:41;30.50;29.40
43808;DHT22;29438;50.664;10.098;2023-07-13T08:46:26;30.80;29.30
43808;DHT22;29438;50.664;10.098;2023-07-13T08:48:59;31.60;28.80
43808;DHT22;29438;50.664;10.098;2023-07-13T08:51:40;31.40;27.80
43808;DHT22;29438;50.664;10.098;2023-07-13T08:56:45;30.70;29.40
43808;DHT22;29438;50.664;10.098;2023-07-13T08:59:15;31.50;28.70
43808;DHT22;29438;50.664;10.098;2023-07-13T09:04:29;30.90;30.00
43808;DHT22;29438;50.664;10.098;2023-07-13T09:07:18;31.20;29.50
43808;DHT22;29438;50.664;10.098;2023-07-13T09:12:36;31.20;29.00
43808;DHT22;29438;50.664;10.098;2023-07-13T09:15:05;30.40;30.00
43808;DHT22;29438;50.664;10.098;2023-07-13T09:17:45;31.50;28.40
43808;DHT22;29438;50.664;10.098;2023-07-13T09:20:19;31.60;28.40
43808;DHT22;29438;50.664;10.098;2023-07-13T09:22:47;31.60;28.40
43808;DHT22;29438;50.664;10.098;2023-07-13T09:27:58;28.70;32.20
43808;DHT22;29438;50.664;10.098;2023-07-13T09:33:13;29.70;30.50
43808;DHT22;29438;50.664;10.098;2023-07-13T09:35:39;28.60;32.00
43808;DHT22;29438;50.664;10.098;2023-07-13T09:38:15;29.10;32.00
43808;DHT22;29438;50.664;10.098;2023-07-13T09:41:14;28.90;32.40
43808;DHT22;29438;50.664;10.098;2023-07-13T09:44:01;30.10;29.90
43808;DHT22;29438;50.664;10.098;2023-07-13T09:46:27;30.20;30.60
43808;DHT22;29438;50.664;10.098;2023-07-13T09:48:52;30.80;29.90
43808;DHT22;29438;50.664;10.098;2023-07-13T09:51:21;30.60;29.70
43808;DHT22;29438;50.664;10.098;2023-07-13T09:53:46;29.60;30.20
43808;DHT22;29438;50.664;10.098;2023-07-13T09:56:21;28.90;31.30
43808;DHT22;29438;50.664;10.098;2023-07-13T09:58:47;28.70;31.90
43808;DHT22;29438;50.664;10.098;2023-07-13T10:01:13;29.20;31.30
43808;DHT22;29438;50.664;10.098;2023-07-13T10:03:40;28.10;31.30
43808;DHT22;29438;50.664;10.098;2023-07-13T10:06:18;26.90;33.70
43808;DHT22;29438;50.664;10.098;2023-07-13T10:08:46;26.90;34.20
43808;DHT22;29438;50.664;10.098;2023-07-13T10:11:22;26.50;35.60
43808;DHT22;29438;50.664;10.098;2023-07-13T10:13:59;26.40;35.00
43808;DHT22;29438;50.664;10.098;2023-07-13T10:16:27;27.00;34.00
43808;DHT22;29438;50.664;10.098;2023-07-13T10:18:59;27.60;32.70
43808;DHT22;29438;50.664;10.098;2023-07-13T10:21:30;27.10;32.80
43808;DHT22;29438;50.664;10.098;2023-07-13T10:24:14;28.10;32.20
43808;DHT22;29438;50.664;10.098;2023-07-13T10:29:26;28.20;31.80
43808;DHT22;29438;50.664;10.098;2023-07-13T10:31:52;27.80;33.80
43808;DHT22;29438;50.664;10.098;2023-07-13T10:34:18;28.10;33.10
43808;DHT22;29438;50.664;10.098;2023-07-13T10:36:46;27.60;33.10
43808;DHT22;29438;50.664;10.098;2023-07-13T10:39:27;27.10;33.80
43808;DHT22;29438;50.664;10.098;2023-07-13T10:42:09;26.90;35.00
43808;DHT22;29438;50.664;10.098;2023-07-13T10:44:37;26.70;34.60
43808;DHT22;29438;50.664;10.098;2023-07-13T10:47:16;26.60;34.70
43808;DHT22;29438;50.664;10.098;2023-07-13T10:49:43;26.00;36.50
43808;DHT22;29438;50.664;10.098;2023-07-13T10:58:18;26.60;34.20
43808;DHT22;29438;50.664;10.098;2023-07-13T11:04:02;26.40;33.10
43808;DHT22;29438;50.664;10.098;2023-07-13T11:08:57;26.30;33.00
43808;DHT22;29438;50.664;10.098;2023-07-13T11:14:43;26.70;34.80
43808;DHT22;29438;50.664;10.098;2023-07-13T11:16:46;26.70;33.40
43808;DHT22;29438;50.664;10.098;2023-07-13T11:24:59;28.70;32.20
43808;DHT22;29438;50.664;10.098;2023-07-13T11:33:22;28.10;30.40
43808;DHT22;29438;50.664;10.098;2023-07-13T11:36:02;28.20;32.60
43808;DHT22;29438;50.664;10.098;2023-07-13T11:38:42;27.60;31.40
43808;DHT22;29438;50.664;10.098;2023-07-13T11:41:26;26.10;34.30
43808;DHT22;29438;50.664;10.098;2023-07-13T11:44:11;26.10;33.90
43808;DHT22;29438;50.664;10.098;2023-07-13T11:46:37;26.30;34.40
43808;DHT22;29438;50.664;10.098;2023-07-13T11:49:05;26.90;34.40
43808;DHT22;29438;50.664;10.098;2023-07-13T11:51:34;27.40;32.10
43808;DHT22;29438;50.664;10.098;2023-07-13T11:54:06;26.90;33.10
43808;DHT22;29438;50.664;10.098;2023-07-13T11:56:33;26.40;32.50
43808;DHT22;29438;50.664;10.098;2023-07-13T11:59:05;25.90;34.10
43808;DHT22;29438;50.664;10.098;2023-07-13T12:01:31;26.00;34.10
43808;DHT22;29438;50.664;10.098;2023-07-13T12:04:02;26.50;33.70
43808;DHT22;29438;50.664;10.098;2023-07-13T12:06:31;26.50;33.00
43808;DHT22;29438;50.664;10.098;2023-07-13T12:09:02;26.20;32.80
43808;DHT22;29438;50.664;10.098;2023-07-13T12:11:29;26.00;33.80
43808;DHT22;29438;50.664;10.098;2023-07-13T12:13:55;26.20;33.30
43808;DHT22;29438;50.664;10.098;2023-07-13T12:16:27;25.80;33.70
43808;DHT22;29438;50.664;10.098;2023-07-13T12:18:54;26.40;32.50
43808;DHT22;29438;50.664;10.098;2023-07-13T12:21:24;26.40;34.00
43808;DHT22;29438;50.664;10.098;2023-07-13T12:23:51;26.90;33.60
43808;DHT22;29438;50.664;10.098;2023-07-13T12:26:18;28.10;31.50
43808;DHT22;29438;50.664;10.098;2023-07-13T12:31:30;27.80;31.40
43808;DHT22;29438;50.664;10.098;2023-07-13T12:34:06;26.80;32.20
43808;DHT22;29438;50.664;10.098;2023-07-13T12:36:35;27.10;32.40
43808;DHT22;29438;50.664;10.098;2023-07-13T12:39:05;26.40;33.20
43808;DHT22;29438;50.664;10.098;2023-07-13T12:41:36;26.70;32.70
43808;DHT22;29438;50.664;10.098;2023-07-13T12:44:01;26.50;31.90
43808;DHT22;29438;50.664;10.098;2023-07-13T12:46:27;25.70;35.10
43808;DHT22;29438;50.664;10.098;2023-07-13T12:48:54;26.10;34.80
43808;DHT22;29438;50.664;10.098;2023-07-13T12:51:27;27.30;32.90
43808;DHT22;29438;50.664;10.098;2023-07-13T12:54:19;28.20;31.80
43808;DHT22;29438;50.664;10.098;2023-07-13T12:56:45;28.70;30.70
43808;DHT22;29438;50.664;10.098;2023-07-13T12:59:19;28.80;30.90
43808;DHT22;29438;50.664;10.098;2023-07-13T13:01:46;28.70;30.70
43808;DHT22;29438;50.664;10.098;2023-07-13T13:04:12;28.10;30.40
43808;DHT22;29438;50.664;10.098;2023-07-13T13:06:38;27.20;31.40
43808;DHT22;29438;50.664;10.098;2023-07-13T13:09:11;26.70;31.70
43808;DHT22;29438;50.664;10.098;2023-07-13T13:11:37;26.40;32.70
43808;DHT22;29438;50.664;10.098;2023-07-13T13:14:03;26.20;33.30
43808;DHT22;29438;50.664;10.098;2023-07-13T13:16:49;26.70;33.80
43808;DHT22;29438;50.664;10.098;2023-07-13T13:19:18;27.60;32.50
43808;DHT22;29438;50.664;10.098;2023-07-13T13:21:45;27.40;31.30
43808;DHT22;29438;50.664;10.098;2023-07-13T13:24:12;27.00;31.80
43808;DHT22;29438;50.664;10.098;2023-07-13T13:26:39;26.50;32.60
43808;DHT22;29438;50.664;10.098;2023-07-13T13:29:17;26.50;33.50
43808;DHT22;29438;50.664;10.098;2023-07-13T13:31:44;26.20;33.30
43808;DHT22;29438;50.664;10.098;2023-07-13T13:34:11;26.00;33.40
43808;DHT22;29438;50.664;10.098;2023-07-13T13:36:37;26.20;34.70
43808;DHT22;29438;50.664;10.098;2023-07-13T13:39:03;26.30;34.70
43808;DHT22;29438;50.664;10.098;2023-07-13T13:41:31;27.00;32.80
43808;DHT22;29438;50.664;10.098;2023-07-13T13:43:57;26.90;34.00
43808;DHT22;29438;50.664;10.098;2023-07-13T13:46:24;27.10;33.50
43808;DHT22;29438;50.664;10.098;2023-07-13T13:48:55;26.80;32.80
43808;DHT22;29438;50.664;10.098;2023-07-13T13:51:23;26.80;33.20
43808;DHT22;29438;50.664;10.098;2023-07-13T13:53:50;26.70;34.60
43808;DHT22;29438;50.664;10.098;2023-07-13T13:56:18;27.10;33.40
43808;DHT22;29438;50.664;10.098;2023-07-13T13:58:44;27.50;32.60
43808;DHT22;29438;50.664;10.098;2023-07-13T14:01:28;27.90;32.60
43808;DHT22;29438;50.664;10.098;2023-07-13T14:03:54;27.50;33.10
43808;DHT22;29438;50.664;10.098;2023-07-13T14:06:20;27.00;32.90
43808;DHT22;29438;50.664;10.098;2023-07-13T14:08:46;26.20;33.30
43808;DHT22;29438;50.664;10.098;2023-07-13T14:11:17;26.30;35.40
43808;DHT22;29438;50.664;10.098;2023-07-13T14:13:47;25.90;34.70
43808;DHT22;29438;50.664;10.098;2023-07-13T14:16:19;26.20;35.30
43808;DHT22;29438;50.664;10.098;2023-07-13T14:18:46;26.10;35.00
43808;DHT22;29438;50.664;10.098;2023-07-13T14:21:17;26.50;33.30
43808;DHT22;29438;50.664;10.098;2023-07-13T14:23:44;26.60;33.30
43808;DHT22;29438;50.664;10.098;2023-07-13T14:26:13;26.70;33.60
43808;DHT22;29438;50.664;10.098;2023-07-13T14:28:43;25.90;34.60
43808;DHT22;29438;50.664;10.098;2023-07-13T14:31:10;25.50;35.40
43808;DHT22;29438;50.664;10.098;2023-07-13T14:33:36;25.60;36.50
43808;DHT22;29438;50.664;10.098;2023-07-13T14:36:03;25.80;36.30
43808;DHT22;29438;50.664;10.098;2023-07-13T14:38:28;26.00;35.80
43808;DHT22;29438;50.664;10.098;2023-07-13T14:40:54;25.50;36.60
43808;DHT22;29438;50.664;10.098;2023-07-13T14:43:19;25.40;36.10
43808;DHT22;29438;50.664;10.098;2023-07-13T14:45:50;25.30;36.30
43808;DHT22;29438;50.664;10.098;2023-07-13T14:48:21;25.10;36.90
43808;DHT22;29438;50.664;10.098;2023-07-13T14:50:55;25.50;37.20
43808;DHT22;29438;50.664;10.098;2023-07-13T14:53:22;25.30;37.40
43808;DHT22;29438;50.664;10.098;2023-07-13T14:55:48;25.40;36.90
43808;DHT22;29438;50.664;10.098;2023-07-13T14:58:13;25.40;38.20
43808;DHT22;29438;50.664;10.098;2023-07-13T15:00:39;25.30;37.80
43808;DHT22;29438;50.664;10.098;2023-07-13T15:03:05;25.00;37.60
43808;DHT22;29438;50.664;10.098;2023-07-13T15:05:39;25.10;37.80
43808;DHT22;29438;50.664;10.098;2023-07-13T15:08:05;25.50;37.40
43808;DHT22;29438;50.664;10.098;2023-07-13T15:10:32;25.60;37.30
43808;DHT22;29438;50.664;10.098;2023-07-13T15:13:12;25.30;36.90
43808;DHT22;29438;50.664;10.098;2023-07-13T15:15:40;25.10;37.30
43808;DHT22;29438;50.664;10.098;2023-07-13T15:18:11;25.40;38.20
43808;DHT22;29438;50.664;10.098;2023-07-13T15:20:37;25.40;36.50
43808;DHT22;29438;50.664;10.098;2023-07-13T15:23:04;25.20;36.20
43808;DHT22;29438;50.664;10.098;2023-07-13T15:25:32;25.30;36.50
43808;DHT22;29438;50.664;10.098;2023-07-13T15:27:59;25.00;37.20
43808;DHT22;29438;50.664;10.098;2023-07-13T15:30:38;24.90;36.80
43808;DHT22;29438;50.664;10.098;2023-07-13T15:35:36;24.70;38.20
43808;DHT22;29438;50.664;10.098;2023-07-13T15:38:13;24.60;38.10
43808;DHT22;29438;50.664;10.098;2023-07-13T15:40:39;24.50;38.10
43808;DHT22;29438;50.664;10.098;2023-07-13T15:43:11;24.40;38.20
43808;DHT22;29438;50.664;10.098;2023-07-13T15:45:37;24.50;39.10
43808;DHT22;29438;50.664;10.098;2023-07-13T15:48:14;24.20;40.90
43808;DHT22;29438;50.664;10.098;2023-07-13T15:50:49;24.00;38.50
43808;DHT22;29438;50.664;10.098;2023-07-13T15:53:34;24.00;39.60
43808;DHT22;29438;50.664;10.098;2023-07-13T15:56:04;24.10;39.20
43808;DHT22;29438;50.664;10.098;2023-07-13T15:58:35;24.00;40.40
43808;DHT22;29438;50.664;10.098;2023-07-13T16:01:01;24.30;40.10
43808;DHT22;29438;50.664;10.098;2023-07-13T16:03:26;24.10;38.60
43808;DHT22;29438;50.664;10.098;2023-07-13T16:05:53;24.20;38.90
43808;DHT22;29438;50.664;10.098;2023-07-13T16:08:27;23.90;39.60
43808;DHT22;29438;50.664;10.098;2023-07-13T16:10:55;23.90;39.80